createdAt,value
2024-03-09T00:01:50.835Z,57.76
2024-03-09T00:04:17.673Z,57.98
2024-03-09T00:06:44.436Z,57.70
2024-03-09T00:09:11.162Z,57.41
2024-03-09T00:11:38.043Z,58.58
2024-03-09T00:14:04.888Z,58.96
2024-03-09T00:16:33.049Z,58.67
2024-03-09T00:18:59.767Z,58.84
2024-03-09T00:21:26.483Z,58.65
2024-03-09T00:23:53.231Z,58.32
2024-03-09T00:26:19.942Z,58.64
2024-03-09T00:28:46.761Z,59.41
2024-03-09T00:31:13.766Z,59.65
2024-03-09T00:33:42.095Z,58.59
2024-03-09T00:36:10.175Z,58.52
2024-03-09T00:38:38.993Z,57.94
2024-03-09T00:41:05.934Z,57.80
2024-03-09T00:43:32.866Z,57.86
2024-03-09T00:45:59.587Z,59.11
2024-03-09T00:48:26.335Z,58.92
2024-03-09T00:50:54.436Z,59.00
2024-03-09T00:53:21.265Z,59.15
2024-03-09T00:55:47.999Z,59.47
2024-03-09T00:58:14.875Z,59.93
2024-03-09T01:00:41.616Z,59.30
2024-03-09T01:03:08.381Z,59.57
2024-03-09T01:05:35.179Z,59.32
2024-03-09T01:08:03.586Z,59.12
2024-03-09T01:10:30.347Z,58.66
2024-03-09T01:12:57.045Z,58.85
2024-03-09T01:15:23.867Z,58.91
2024-03-09T01:17:50.786Z,59.49
2024-03-09T01:20:17.630Z,59.66
2024-03-09T01:22:44.600Z,59.92
2024-03-09T01:25:13.006Z,59.62
2024-03-09T01:27:39.772Z,59.50
2024-03-09T01:30:07.703Z,59.26
2024-03-09T01:32:34.522Z,59.05
2024-03-09T01:35:01.404Z,58.78
2024-03-09T01:37:28.194Z,58.72
2024-03-09T01:39:55.152Z,58.90
2024-03-09T01:42:23.329Z,59.37
2024-03-09T01:44:50.438Z,59.22
2024-03-09T01:47:17.351Z,59.08
2024-03-09T01:49:44.097Z,58.91
2024-03-09T01:52:10.919Z,59.24
2024-03-09T01:54:40.516Z,59.48
2024-03-09T01:57:08.641Z,59.64
2024-03-09T01:59:36.733Z,59.32
2024-03-09T02:02:03.687Z,59.28
2024-03-09T02:04:30.499Z,59.93
2024-03-09T02:06:57.293Z,59.31
2024-03-09T02:09:23.997Z,59.21
2024-03-09T02:11:50.748Z,59.05
2024-03-09T02:14:17.576Z,59.04
2024-03-09T02:16:45.666Z,58.83
2024-03-09T02:19:12.361Z,58.68
2024-03-09T02:21:39.064Z,59.01
2024-03-09T02:24:07.122Z,59.11
2024-03-09T02:26:35.311Z,59.65
2024-03-09T02:29:02.071Z,59.16
2024-03-09T02:31:28.889Z,59.32
2024-03-09T02:33:55.670Z,59.37
2024-03-09T02:36:25.505Z,59.23
2024-03-09T02:38:52.244Z,59.01
2024-03-09T02:41:19.072Z,58.48
2024-03-09T02:43:47.210Z,58.65
2024-03-09T02:46:14.027Z,58.61
2024-03-09T02:48:42.920Z,59.35
2024-03-09T02:51:09.651Z,59.83
2024-03-09T02:53:36.361Z,59.48
2024-03-09T02:56:03.438Z,59.55
2024-03-09T02:58:30.313Z,59.84
2024-03-09T03:00:58.452Z,59.50
2024-03-09T03:03:25.231Z,59.55
2024-03-09T03:05:51.937Z,60.15
2024-03-09T03:08:18.634Z,59.65
2024-03-09T03:10:45.416Z,59.81
2024-03-09T03:13:12.954Z,60.25
2024-03-09T03:15:39.696Z,60.70
2024-03-09T03:18:08.154Z,60.27
2024-03-09T03:20:35.486Z,60.67
2024-03-09T03:23:04.002Z,60.18
2024-03-09T03:25:31.018Z,59.95
2024-03-09T03:27:57.791Z,59.53
2024-03-09T03:30:24.650Z,59.10
2024-03-09T03:32:51.397Z,59.66
2024-03-09T03:35:19.565Z,60.45
2024-03-09T03:37:46.292Z,60.49
2024-03-09T03:40:13.447Z,60.68
2024-03-09T03:42:40.130Z,61.03
2024-03-09T03:45:07.729Z,60.55
2024-03-09T03:47:34.486Z,60.14
2024-03-09T03:50:01.886Z,59.78
2024-03-09T03:52:30.782Z,59.55
2024-03-09T03:54:58.221Z,59.62
2024-03-09T03:57:25.775Z,59.19
2024-03-09T03:59:53.066Z,58.40
2024-03-09T04:02:20.258Z,58.42
2024-03-09T04:04:47.544Z,57.85
2024-03-09T04:07:15.027Z,58.34
2024-03-09T04:09:43.754Z,58.75
2024-03-09T04:12:11.098Z,59.14
2024-03-09T04:14:38.390Z,59.24
2024-03-09T04:17:05.901Z,59.41
2024-03-09T04:19:36.258Z,58.84
2024-03-09T04:22:03.685Z,58.49
2024-03-09T04:24:31.156Z,58.64
2024-03-09T04:27:00.749Z,59.45
2024-03-09T04:29:30.776Z,59.62
2024-03-09T04:31:58.116Z,59.63
2024-03-09T04:34:25.438Z,59.76
2024-03-09T04:36:52.788Z,59.21
2024-03-09T04:39:23.077Z,59.19
2024-03-09T04:41:50.264Z,59.23
2024-03-09T04:44:25.088Z,59.25
2024-03-09T04:46:56.749Z,58.98
2024-03-09T04:49:23.467Z,59.32
2024-03-09T04:51:50.220Z,59.78
2024-03-09T04:54:17.030Z,60.37
2024-03-09T04:56:43.842Z,59.91
2024-03-09T04:59:10.665Z,59.51
2024-03-09T05:01:38.948Z,59.29
2024-03-09T05:04:05.690Z,58.84
2024-03-09T05:06:32.415Z,58.90
2024-03-09T05:08:59.243Z,58.47
2024-03-09T05:11:26.044Z,58.99
2024-03-09T05:13:52.904Z,59.05
2024-03-09T05:16:19.633Z,58.63
2024-03-09T05:18:47.788Z,58.94
2024-03-09T05:21:14.598Z,58.92
2024-03-09T05:23:41.361Z,58.82
2024-03-09T05:26:08.185Z,59.53
2024-03-09T05:28:34.948Z,59.54
2024-03-09T05:31:01.726Z,59.07
2024-03-09T05:33:28.454Z,59.24
2024-03-09T05:35:56.540Z,59.47
2024-03-09T05:38:23.266Z,59.54
2024-03-09T05:40:50.040Z,59.59
2024-03-09T05:43:16.842Z,59.95
2024-03-09T05:45:43.617Z,60.52
2024-03-09T05:48:10.849Z,60.96
2024-03-09T05:50:37.621Z,60.92
2024-03-09T05:53:06.465Z,61.12
2024-03-09T05:55:33.645Z,61.38
2024-03-09T05:58:00.405Z,61.44
2024-03-09T06:00:27.664Z,61.23
2024-03-09T06:02:54.381Z,61.76
2024-03-09T06:05:21.216Z,61.65
2024-03-09T06:07:47.975Z,61.88
2024-03-09T06:10:16.730Z,61.50
2024-03-09T06:12:43.524Z,61.63
2024-03-09T06:15:10.713Z,61.78
2024-03-09T06:17:37.561Z,60.90
2024-03-09T06:20:05.079Z,61.11
2024-03-09T06:22:31.899Z,60.71
2024-03-09T06:24:58.651Z,60.45
2024-03-09T06:27:26.754Z,60.33
2024-03-09T06:29:53.487Z,60.53
2024-03-09T06:32:20.248Z,60.97
2024-03-09T06:34:47.163Z,60.22
2024-03-09T06:37:14.075Z,60.13
2024-03-09T06:39:40.928Z,59.78
2024-03-09T06:42:08.002Z,60.32
2024-03-09T06:44:36.068Z,60.13
2024-03-09T06:47:02.902Z,60.61
2024-03-09T06:49:29.737Z,60.20
2024-03-09T06:51:56.491Z,60.97
2024-03-09T06:54:23.193Z,61.08
2024-03-09T06:56:49.947Z,61.38
2024-03-09T06:59:16.698Z,61.62
2024-03-09T07:01:44.849Z,62.19
2024-03-09T07:04:11.569Z,62.18
2024-03-09T07:06:38.341Z,62.94
2024-03-09T07:09:05.069Z,62.41
2024-03-09T07:11:31.810Z,63.55
2024-03-09T07:13:58.664Z,63.18
2024-03-09T07:16:25.384Z,63.82
2024-03-09T07:18:53.517Z,63.06
2024-03-09T07:21:20.307Z,64.16
2024-03-09T07:23:47.009Z,65.44
2024-03-09T07:26:13.807Z,64.75
2024-03-09T07:28:40.706Z,64.20
2024-03-09T07:31:07.506Z,64.34
2024-03-09T07:33:34.349Z,64.42
2024-03-09T07:36:02.720Z,65.57
2024-03-09T07:38:29.562Z,65.00
2024-03-09T07:40:56.395Z,65.36
2024-03-09T07:43:23.144Z,65.40
2024-03-09T07:45:50.100Z,65.36
2024-03-09T07:48:16.966Z,64.93
2024-03-09T07:50:44.009Z,65.03
2024-03-09T07:53:12.316Z,64.01
2024-03-09T07:55:39.207Z,63.06
2024-03-09T07:58:14.408Z,62.87
2024-03-09T08:00:49.004Z,62.49
2024-03-09T08:03:15.949Z,61.53
2024-03-09T08:05:43.214Z,61.28
2024-03-09T08:08:10.429Z,60.64
2024-03-09T08:10:38.955Z,60.46
2024-03-09T08:13:05.805Z,61.26
2024-03-09T08:15:32.573Z,60.41
2024-03-09T08:17:59.483Z,60.73
2024-03-09T08:20:26.287Z,60.30
2024-03-09T08:22:53.077Z,59.79
2024-03-09T08:25:19.978Z,59.79
2024-03-09T08:27:48.448Z,59.69
2024-03-09T08:30:16.154Z,60.36
2024-03-09T08:32:43.698Z,60.75
2024-03-09T08:35:11.037Z,62.39
2024-03-09T08:37:38.240Z,62.26
2024-03-09T08:40:07.129Z,62.52
2024-03-09T08:42:34.088Z,62.41
2024-03-09T08:45:03.377Z,62.31
2024-03-09T08:47:30.310Z,62.63
2024-03-09T08:49:57.209Z,62.77
2024-03-09T08:52:24.024Z,62.75
2024-03-09T08:54:50.848Z,63.05
2024-03-09T08:57:17.594Z,63.21
2024-03-09T08:59:44.488Z,63.56
2024-03-09T09:02:12.618Z,64.07
2024-03-09T09:04:39.397Z,63.73
2024-03-09T09:07:06.143Z,63.64
2024-03-09T09:09:32.956Z,64.21
2024-03-09T09:11:59.868Z,64.22
2024-03-09T09:14:26.906Z,64.65
2024-03-09T09:16:53.646Z,65.35
2024-03-09T09:19:21.747Z,65.89
2024-03-09T09:21:48.717Z,66.27
2024-03-09T09:24:15.444Z,66.60
2024-03-09T09:26:42.175Z,66.46
2024-03-09T09:29:09.021Z,65.87
2024-03-09T09:31:36.117Z,65.71
2024-03-09T09:34:02.948Z,65.92
2024-03-09T09:36:31.088Z,64.77
2024-03-09T09:38:57.862Z,64.62
2024-03-09T09:41:24.696Z,64.60
2024-03-09T09:43:56.262Z,63.77
2024-03-09T09:46:23.077Z,64.02
2024-03-09T09:48:49.794Z,65.11
2024-03-09T09:51:16.668Z,64.87
2024-03-09T09:53:44.758Z,64.48
2024-03-09T09:56:11.527Z,64.14
2024-03-09T09:58:38.360Z,64.22
2024-03-09T10:01:05.268Z,64.07
2024-03-09T10:03:32.027Z,64.10
2024-03-09T10:05:58.778Z,65.09
2024-03-09T10:08:25.481Z,64.63
2024-03-09T10:10:53.709Z,63.47
2024-03-09T10:13:20.556Z,63.95
2024-03-09T10:15:47.982Z,63.75
2024-03-09T10:18:15.110Z,63.12
2024-03-09T10:20:41.878Z,62.76
2024-03-09T10:23:10.483Z,61.83
2024-03-09T10:25:37.859Z,61.83
2024-03-09T10:28:06.775Z,63.00
2024-03-09T10:30:33.644Z,62.64
2024-03-09T10:33:00.401Z,62.01
2024-03-09T10:35:27.336Z,61.45
2024-03-09T10:37:54.658Z,61.15
2024-03-09T10:40:21.400Z,60.06
2024-03-09T10:42:49.098Z,60.42
2024-03-09T10:45:17.923Z,59.94
2024-03-09T10:47:47.949Z,59.18
2024-03-09T10:50:15.291Z,59.32
2024-03-09T10:52:42.090Z,57.93
2024-03-09T10:55:10.561Z,58.48
2024-03-09T10:57:37.289Z,58.90
2024-03-09T11:00:04.624Z,58.67
2024-03-09T11:02:32.819Z,58.14
2024-03-09T11:04:59.703Z,57.83
2024-03-09T11:07:26.541Z,57.48
2024-03-09T11:09:53.332Z,57.01
2024-03-09T11:12:20.386Z,56.70
2024-03-09T11:14:50.491Z,55.68
2024-03-09T11:17:20.561Z,55.64
2024-03-09T11:19:50.946Z,55.00
2024-03-09T11:22:39.573Z,54.13
2024-03-09T11:25:08.146Z,54.40
2024-03-09T11:27:34.813Z,53.80
2024-03-09T11:30:01.586Z,52.94
2024-03-09T11:32:28.316Z,53.15
2024-03-09T11:35:30.283Z,53.51
2024-03-09T11:37:57.035Z,52.39
2024-03-09T11:40:23.976Z,51.52
2024-03-09T11:42:59.266Z,52.40
2024-03-09T11:45:27.204Z,51.38
2024-03-09T11:47:54.132Z,53.89
2024-03-09T11:50:21.001Z,56.84
2024-03-09T11:52:49.164Z,55.50
2024-03-09T11:55:16.177Z,55.41
2024-03-09T11:57:43.793Z,55.95
2024-03-09T12:00:11.182Z,55.91
2024-03-09T12:02:38.320Z,54.81
2024-03-09T12:05:09.819Z,57.13
2024-03-09T12:07:36.579Z,56.42
2024-03-09T12:10:05.929Z,55.39
2024-03-09T12:12:35.195Z,56.28
2024-03-09T12:15:01.984Z,56.47
2024-03-09T12:17:28.763Z,54.83
2024-03-09T12:19:55.501Z,55.81
2024-03-09T12:22:22.257Z,54.35
2024-03-09T12:24:49.018Z,53.58
2024-03-09T12:27:17.082Z,55.26
2024-03-09T12:29:43.839Z,57.11
2024-03-09T12:32:10.674Z,56.77
2024-03-09T12:34:38.466Z,56.74
2024-03-09T12:37:05.483Z,56.45
2024-03-09T12:39:32.326Z,56.08
2024-03-09T12:42:01.781Z,56.68
2024-03-09T12:44:35.069Z,57.25
2024-03-09T12:47:01.915Z,55.80
2024-03-09T12:49:28.675Z,55.66
2024-03-09T12:51:55.372Z,54.61
2024-03-09T12:54:22.197Z,54.97
2024-03-09T12:56:50.142Z,54.43
2024-03-09T12:59:18.180Z,54.68
2024-03-09T13:01:46.499Z,54.17
2024-03-09T13:04:13.964Z,53.90
2024-03-09T13:06:41.268Z,53.51
2024-03-09T13:09:08.543Z,52.45
2024-03-09T13:11:35.367Z,51.85
2024-03-09T13:14:02.224Z,52.65
2024-03-09T13:16:29.054Z,52.42
2024-03-09T13:18:57.145Z,51.49
2024-03-09T13:21:23.931Z,51.71
2024-03-09T13:23:50.663Z,51.84
2024-03-09T13:26:17.502Z,51.10
2024-03-09T13:28:44.283Z,50.97
2024-03-09T13:31:11.159Z,51.07
2024-03-09T13:33:37.959Z,51.95
2024-03-09T13:36:06.728Z,51.47
2024-03-09T13:38:33.452Z,51.10
2024-03-09T13:41:00.232Z,50.42
2024-03-09T13:43:26.992Z,51.25
2024-03-09T13:45:53.743Z,51.90
2024-03-09T13:48:20.490Z,51.33
2024-03-09T13:50:47.217Z,51.66
2024-03-09T13:53:15.412Z,51.29
2024-03-09T13:55:42.239Z,51.34
2024-03-09T13:58:09.043Z,50.84
2024-03-09T14:00:35.762Z,50.42
2024-03-09T14:03:02.634Z,50.80
2024-03-09T14:05:29.492Z,50.85
2024-03-09T14:07:56.789Z,51.16
2024-03-09T14:10:28.228Z,51.00
2024-03-09T14:12:55.232Z,50.54
2024-03-09T14:15:22.277Z,51.18
2024-03-09T14:17:49.860Z,51.42
2024-03-09T14:20:16.727Z,51.29
2024-03-09T14:22:43.588Z,51.60
2024-03-09T14:25:10.353Z,51.83
2024-03-09T14:27:38.428Z,51.66
2024-03-09T14:30:07.826Z,52.20
2024-03-09T14:32:34.682Z,52.14
2024-03-09T14:35:01.578Z,52.63
2024-03-09T14:37:30.092Z,52.87
2024-03-09T14:39:56.810Z,53.04
2024-03-09T14:42:23.618Z,52.23
2024-03-09T14:44:51.713Z,52.65
2024-03-09T14:47:18.569Z,52.28
2024-03-09T14:49:45.312Z,52.55
2024-03-09T14:52:12.149Z,52.67
2024-03-09T14:54:38.926Z,53.05
2024-03-09T14:57:05.659Z,52.33
2024-03-09T14:59:32.378Z,52.40
2024-03-09T15:02:00.421Z,52.28
2024-03-09T15:04:27.225Z,51.95
2024-03-09T15:06:53.954Z,51.68
2024-03-09T15:09:20.703Z,51.84
2024-03-09T15:11:47.823Z,51.27
2024-03-09T15:14:14.753Z,51.01
2024-03-09T15:16:41.594Z,51.56
2024-03-09T15:19:09.789Z,51.94
2024-03-09T15:21:36.535Z,51.97
2024-03-09T15:24:03.705Z,51.53
2024-03-09T15:26:31.273Z,52.66
2024-03-09T15:28:58.974Z,52.15
2024-03-09T15:31:26.225Z,51.62
2024-03-09T15:33:52.966Z,52.63
2024-03-09T15:36:21.064Z,52.09
2024-03-09T15:38:47.867Z,52.36
2024-03-09T15:41:15.351Z,51.79
2024-03-09T15:43:42.483Z,52.12
2024-03-09T15:46:09.327Z,51.95
2024-03-09T15:48:36.106Z,52.49
2024-03-09T15:51:03.177Z,52.18
2024-03-09T15:53:31.996Z,52.10
2024-03-09T15:55:58.771Z,52.06
2024-03-09T15:58:25.588Z,52.46
2024-03-09T16:00:52.459Z,51.99
2024-03-09T16:03:19.162Z,51.31
2024-03-09T16:05:45.956Z,51.87
2024-03-09T16:08:14.837Z,52.08
2024-03-09T16:10:44.066Z,51.98
2024-03-09T16:13:10.948Z,51.43
2024-03-09T16:15:37.676Z,51.46
2024-03-09T16:18:05.038Z,51.28
2024-03-09T16:20:32.487Z,51.64
2024-03-09T16:22:59.496Z,51.34
2024-03-09T16:25:27.131Z,50.45
2024-03-09T16:27:55.969Z,50.13
2024-03-09T16:30:22.705Z,51.14
2024-03-09T16:32:49.501Z,50.09
2024-03-09T16:35:16.545Z,49.84
2024-03-09T16:37:43.386Z,49.96
2024-03-09T16:40:10.921Z,50.44
2024-03-09T16:42:37.644Z,49.28
2024-03-09T16:45:06.869Z,48.67
2024-03-09T16:47:33.652Z,49.75
2024-03-09T16:50:00.506Z,48.47
2024-03-09T16:52:27.280Z,49.50
2024-03-09T16:54:54.013Z,49.49
2024-03-09T16:57:23.116Z,50.75
2024-03-09T16:59:50.462Z,50.82
2024-03-09T17:02:18.591Z,51.50
2024-03-09T17:04:45.400Z,51.95
2024-03-09T17:07:12.201Z,51.20
2024-03-09T17:09:38.964Z,51.27
2024-03-09T17:12:06.326Z,52.49
2024-03-09T17:14:33.257Z,51.01
2024-03-09T17:17:00.029Z,50.35
2024-03-09T17:19:28.317Z,50.39
2024-03-09T17:21:55.019Z,49.50
2024-03-09T17:24:21.782Z,50.00
2024-03-09T17:26:48.575Z,48.92
2024-03-09T17:29:15.408Z,49.12
2024-03-09T17:31:42.269Z,50.30
2024-03-09T17:34:09.082Z,49.72
2024-03-09T17:36:37.167Z,49.73
2024-03-09T17:39:04.115Z,50.41
2024-03-09T17:41:30.955Z,50.69
2024-03-09T17:43:57.859Z,50.63
2024-03-09T17:46:24.691Z,50.26
2024-03-09T17:48:51.543Z,49.86
2024-03-09T17:51:18.648Z,49.13
2024-03-09T17:53:46.884Z,48.09
2024-03-09T17:56:14.624Z,47.97
2024-03-09T17:58:42.991Z,48.54
2024-03-09T18:01:09.769Z,48.62
2024-03-09T18:03:36.504Z,48.76
2024-03-09T18:06:03.628Z,48.09
2024-03-09T18:08:30.434Z,49.53
2024-03-09T18:10:58.577Z,49.05
2024-03-09T18:13:25.382Z,48.79
2024-03-09T18:15:52.254Z,48.68
2024-03-09T18:18:19.072Z,48.43
2024-03-09T18:20:45.889Z,47.82
2024-03-09T18:23:13.416Z,48.98
2024-03-09T18:25:40.743Z,48.62
2024-03-09T18:28:09.577Z,49.07
2024-03-09T18:30:36.613Z,49.93
2024-03-09T18:33:03.991Z,49.90
2024-03-09T18:35:30.790Z,49.30
2024-03-09T18:37:57.594Z,50.16
2024-03-09T18:40:24.315Z,49.15
2024-03-09T18:42:51.025Z,50.11
2024-03-09T18:45:19.124Z,49.46
2024-03-09T18:47:45.869Z,48.83
2024-03-09T18:50:12.945Z,48.93
2024-03-09T18:52:39.776Z,49.46
2024-03-09T18:55:07.734Z,48.40
2024-03-09T18:57:34.585Z,47.77
2024-03-09T19:00:02.583Z,49.06
2024-03-09T19:02:31.753Z,48.09
2024-03-09T19:04:58.731Z,48.21
2024-03-09T19:07:25.610Z,49.55
2024-03-09T19:09:52.316Z,50.47
2024-03-09T19:12:19.093Z,50.10
2024-03-09T19:14:45.874Z,50.94
2024-03-09T19:17:12.747Z,50.52
2024-03-09T19:19:40.882Z,50.87
2024-03-09T19:22:07.621Z,50.96
2024-03-09T19:24:34.337Z,50.97
2024-03-09T19:27:01.089Z,51.29
2024-03-09T19:29:27.921Z,51.51
2024-03-09T19:31:54.707Z,51.57
2024-03-09T19:34:21.600Z,51.50
2024-03-09T19:36:49.694Z,51.40
2024-03-09T19:39:16.533Z,51.12
2024-03-09T19:41:43.367Z,51.17
2024-03-09T19:44:10.245Z,51.25
2024-03-09T19:46:37.063Z,50.11
2024-03-09T19:49:03.836Z,50.80
2024-03-09T19:51:30.869Z,50.86
2024-03-09T19:53:59.280Z,50.83
2024-03-09T19:56:26.168Z,50.93
2024-03-09T19:58:52.917Z,50.71
2024-03-09T20:01:19.633Z,50.80
2024-03-09T20:03:46.425Z,50.83
2024-03-09T20:06:13.202Z,51.06
2024-03-09T20:08:40.004Z,51.19
2024-03-09T20:11:08.183Z,51.14
2024-03-09T20:13:35.047Z,51.32
2024-03-09T20:16:01.809Z,51.09
2024-03-09T20:18:28.690Z,50.95
2024-03-09T20:20:55.595Z,50.22
2024-03-09T20:23:22.368Z,50.74
2024-03-09T20:25:49.313Z,49.97
2024-03-09T20:28:17.406Z,50.01
2024-03-09T20:30:44.135Z,50.29
2024-03-09T20:33:10.928Z,51.03
2024-03-09T20:35:37.798Z,50.97
2024-03-09T20:38:06.687Z,50.76
2024-03-09T20:40:35.520Z,50.96
2024-03-09T20:43:02.332Z,50.59
2024-03-09T20:45:30.457Z,50.20
2024-03-09T20:47:57.450Z,50.58
2024-03-09T20:50:24.518Z,50.43
2024-03-09T20:52:51.393Z,51.72
2024-03-09T20:55:18.363Z,51.63
2024-03-09T20:57:45.115Z,51.58
2024-03-09T21:00:12.844Z,51.67
2024-03-09T21:02:41.000Z,53.14
2024-03-09T21:05:08.640Z,53.85
2024-03-09T21:07:35.486Z,55.51
2024-03-09T21:10:02.230Z,55.06
2024-03-09T21:12:29.040Z,54.10
2024-03-09T21:14:55.773Z,53.78
2024-03-09T21:17:22.509Z,53.62
2024-03-09T21:19:50.717Z,53.89
2024-03-09T21:22:17.488Z,54.54
2024-03-09T21:24:44.270Z,52.76
2024-03-09T21:27:11.041Z,53.59
2024-03-09T21:29:37.921Z,53.89
2024-03-09T21:32:05.387Z,54.46
2024-03-09T21:34:32.175Z,54.16
2024-03-09T21:37:00.277Z,54.67
2024-03-09T21:39:30.196Z,55.22
2024-03-09T21:41:56.995Z,55.57
2024-03-09T21:44:23.748Z,56.21
2024-03-09T21:46:50.552Z,56.07
2024-03-09T21:49:17.264Z,56.23
2024-03-09T21:51:44.146Z,56.36
2024-03-09T21:54:12.436Z,56.54
2024-03-09T21:56:39.178Z,56.52
2024-03-09T21:59:05.971Z,56.22
2024-03-09T22:01:32.918Z,56.81
2024-03-09T22:03:59.843Z,56.77
2024-03-09T22:06:26.637Z,57.08
2024-03-09T22:08:53.606Z,56.85
2024-03-09T22:11:21.946Z,56.68
2024-03-09T22:13:48.766Z,56.62
2024-03-09T22:16:15.568Z,56.39
2024-03-09T22:18:42.362Z,56.50
2024-03-09T22:21:10.161Z,56.86
2024-03-09T22:23:36.958Z,56.82
2024-03-09T22:26:04.068Z,56.54
2024-03-09T22:28:32.170Z,56.06
2024-03-09T22:30:58.918Z,56.41
2024-03-09T22:33:25.600Z,56.51
2024-03-09T22:35:52.448Z,56.74
2024-03-09T22:38:19.244Z,57.28
2024-03-09T22:40:46.034Z,56.98
2024-03-09T22:43:12.939Z,57.29
2024-03-09T22:45:41.337Z,56.72
2024-03-09T22:48:08.352Z,56.33
2024-03-09T22:50:35.204Z,56.29
2024-03-09T22:53:01.980Z,56.21
2024-03-09T22:55:28.700Z,55.85
2024-03-09T22:57:55.414Z,55.47
2024-03-09T23:00:22.133Z,55.48
2024-03-09T23:02:50.222Z,55.81
2024-03-09T23:05:17.284Z,56.34
2024-03-09T23:07:44.063Z,56.20
2024-03-09T23:10:10.831Z,56.32
2024-03-09T23:12:37.542Z,56.18
2024-03-09T23:15:04.766Z,55.72
2024-03-09T23:17:31.815Z,55.67
2024-03-09T23:20:00.109Z,55.59
2024-03-09T23:22:26.843Z,55.56
2024-03-09T23:24:53.637Z,55.97
2024-03-09T23:27:20.420Z,55.69
2024-03-09T23:29:47.165Z,55.56
2024-03-09T23:32:13.946Z,55.25
2024-03-09T23:34:41.291Z,55.25
2024-03-09T23:37:09.436Z,55.61
2024-03-09T23:39:36.136Z,55.52
2024-03-09T23:42:02.898Z,55.78
2024-03-09T23:44:29.907Z,56.21
2024-03-09T23:46:56.740Z,55.86
2024-03-09T23:49:23.478Z,56.37
2024-03-09T23:51:50.193Z,56.56
2024-03-09T23:54:18.258Z,57.61
2024-03-09T23:56:44.969Z,57.45
2024-03-09T23:59:11.784Z,57.15
